createdAt,value
2017-08-10T00:00:22.718Z,48.9
2017-08-10T00:01:32.326Z,49
2017-08-10T00:02:42.263Z,48.25
2017-08-10T00:03:51.616Z,48.74
2017-08-10T00:05:01.529Z,48.64
2017-08-10T00:06:11.433Z,48.54
2017-08-10T00:07:21.037Z,48.44
2017-08-10T00:08:30.960Z,48.71
2017-08-10T00:09:40.979Z,48.54
2017-08-10T00:10:50.592Z,48.93
2017-08-10T00:12:00.827Z,48.25
2017-08-10T00:13:10.150Z,48.54
2017-08-10T00:14:20.370Z,48.54
2017-08-10T00:15:30.584Z,48.54
2017-08-10T00:16:40.817Z,48.35
2017-08-10T00:17:50.730Z,48.44
2017-08-10T00:19:00.658Z,48.44
2017-08-10T00:20:10.600Z,48.93
2017-08-10T00:21:20.015Z,48.83
2017-08-10T00:22:30.238Z,48.83
2017-08-10T00:23:40.175Z,48.93
2017-08-10T00:24:49.460Z,48.93
2017-08-10T00:25:59.368Z,48.93
2017-08-10T00:27:09.294Z,48.93
2017-08-10T00:28:19.208Z,48.93
2017-08-10T00:29:29.124Z,48.93
2017-08-10T00:30:39.350Z,48.83
2017-08-10T00:31:49.496Z,49.02
2017-08-10T00:32:59.858Z,48.64
2017-08-10T00:34:09.788Z,48.83
2017-08-10T00:35:19.694Z,48.93
2017-08-10T00:36:29.002Z,49.02
2017-08-10T00:37:38.926Z,49.58
2017-08-10T00:38:48.530Z,49.77
2017-08-10T00:39:58.451Z,49.87
2017-08-10T00:41:08.394Z,49.68
2017-08-10T00:42:17.998Z,49.77
2017-08-10T00:43:27.616Z,49.87
2017-08-10T00:44:37.852Z,50.06
2017-08-10T00:45:47.469Z,50.06
2017-08-10T00:46:56.769Z,50.06
2017-08-10T00:48:06.681Z,49.96
2017-08-10T00:49:16.284Z,50.04
2017-08-10T00:50:26.521Z,50.35
2017-08-10T00:51:36.446Z,50.74
2017-08-10T00:52:46.373Z,50.62
2017-08-10T00:53:55.993Z,50.71
2017-08-10T00:55:05.598Z,50.71
2017-08-10T00:56:15.969Z,50.9
2017-08-10T00:57:26.189Z,51
2017-08-10T00:58:36.096Z,51
2017-08-10T00:59:46.007Z,51.1
2017-08-10T01:00:56.241Z,51.1
2017-08-10T01:02:06.518Z,51
2017-08-10T01:03:16.429Z,51
2017-08-10T01:04:26.645Z,51.2
2017-08-10T01:05:36.879Z,51.56
2017-08-10T01:06:46.471Z,51.56
2017-08-10T01:07:56.177Z,52.04
2017-08-10T01:09:05.803Z,52.04
2017-08-10T01:10:16.042Z,52.23
2017-08-10T01:11:25.669Z,52.42
2017-08-10T01:12:35.881Z,52.69
2017-08-10T01:13:45.797Z,52.81
2017-08-10T01:14:55.720Z,52.59
2017-08-10T01:16:05.036Z,53.27
2017-08-10T01:17:14.649Z,52.97
2017-08-10T01:18:24.858Z,52.97
2017-08-10T01:19:34.575Z,53.45
2017-08-10T01:20:43.900Z,53.27
2017-08-10T01:21:53.823Z,53.45
2017-08-10T01:23:03.778Z,53.55
2017-08-10T01:24:13.702Z,53.65
2017-08-10T01:25:24.034Z,53.81
2017-08-10T01:26:33.943Z,53.91
2017-08-10T01:27:43.560Z,53.72
2017-08-10T01:28:53.798Z,54
2017-08-10T01:30:04.013Z,54
2017-08-10T01:31:14.074Z,54
2017-08-10T01:32:23.995Z,54
2017-08-10T01:33:33.902Z,53.91
2017-08-10T01:34:43.215Z,53.81
2017-08-10T01:35:53.157Z,54.1
2017-08-10T01:37:03.382Z,54
2017-08-10T01:38:12.699Z,54
2017-08-10T01:39:22.627Z,53.91
2017-08-10T01:40:32.855Z,54.3
2017-08-10T01:41:42.781Z,53.91
2017-08-10T01:42:53.099Z,54.2
2017-08-10T01:44:02.707Z,54.2
2017-08-10T01:45:12.930Z,54.46
2017-08-10T01:46:22.531Z,54.75
2017-08-10T01:47:31.533Z,54.78
2017-08-10T01:48:41.514Z,54.75
2017-08-10T01:49:51.734Z,54.46
2017-08-10T01:51:01.649Z,54.75
2017-08-10T01:52:11.555Z,54.78
2017-08-10T01:53:21.791Z,54.36
2017-08-10T01:54:32.200Z,54.75
2017-08-10T01:55:42.114Z,55.04
2017-08-10T01:56:52.331Z,55.13
2017-08-10T01:58:02.269Z,55.43
2017-08-10T01:59:11.899Z,55.52
2017-08-10T02:00:22.285Z,55.23
2017-08-10T02:01:32.493Z,55.71
2017-08-10T02:02:42.404Z,55.9
2017-08-10T02:03:52.623Z,55.9
2017-08-10T02:05:02.231Z,55.9
2017-08-10T02:06:12.152Z,55.81
2017-08-10T02:07:21.787Z,55.9
2017-08-10T02:08:31.721Z,56
2017-08-10T02:09:41.630Z,55.81
2017-08-10T02:10:50.937Z,55.88
2017-08-10T02:12:00.587Z,56.26
2017-08-10T02:13:10.183Z,56.26
2017-08-10T02:14:19.793Z,56.36
2017-08-10T02:15:30.038Z,56.36
2017-08-10T02:16:39.951Z,56.55
2017-08-10T02:17:49.324Z,56.36
2017-08-10T02:18:59.552Z,56.55
2017-08-10T02:20:09.805Z,56.26
2017-08-10T02:21:20.023Z,56.36
2017-08-10T02:22:29.331Z,56.16
2017-08-10T02:23:39.257Z,56.93
2017-08-10T02:24:49.164Z,56.93
2017-08-10T02:25:58.769Z,57.03
2017-08-10T02:27:07.758Z,56.93
2017-08-10T02:28:17.675Z,57.03
2017-08-10T02:29:27.275Z,56.65
2017-08-10T02:30:37.188Z,56.38
2017-08-10T02:31:47.121Z,56.29
2017-08-10T02:32:57.351Z,56.48
2017-08-10T02:34:07.265Z,56.38
2017-08-10T02:35:17.545Z,56.38
2017-08-10T02:36:27.776Z,56.58
2017-08-10T02:37:37.709Z,55.9
2017-08-10T02:38:47.924Z,55.71
2017-08-10T02:39:58.158Z,55.62
2017-08-10T02:41:07.918Z,56.1
2017-08-10T02:42:18.147Z,55.9
2017-08-10T02:43:28.072Z,55.9
2017-08-10T02:44:37.987Z,56.38
2017-08-10T02:45:47.897Z,56.38
2017-08-10T02:46:57.939Z,56.38
2017-08-10T02:48:07.237Z,56.48
2017-08-10T02:49:16.837Z,56.38
2017-08-10T02:50:25.835Z,56.58
2017-08-10T02:51:35.447Z,56.48
2017-08-10T02:52:45.810Z,56.58
2017-08-10T02:53:55.743Z,56.58
2017-08-10T02:55:05.368Z,56.38
2017-08-10T02:56:14.982Z,56.48
2017-08-10T02:57:24.915Z,56.38
2017-08-10T02:58:34.680Z,56.58
2017-08-10T02:59:44.898Z,56.29
2017-08-10T03:00:54.524Z,56.58
2017-08-10T03:02:04.456Z,56.2
2017-08-10T03:03:14.413Z,56.38
2017-08-10T03:04:24.397Z,56
2017-08-10T03:05:33.705Z,55.83
2017-08-10T03:06:43.946Z,55.83
2017-08-10T03:07:53.883Z,55.55
2017-08-10T03:09:03.489Z,55.45
2017-08-10T03:10:13.095Z,55.55
2017-08-10T03:11:22.994Z,55.65
2017-08-10T03:12:33.216Z,55.26
2017-08-10T03:13:43.453Z,55.45
2017-08-10T03:14:53.069Z,55.26
2017-08-10T03:16:03.041Z,55.38
2017-08-10T03:17:13.258Z,55.09
2017-08-10T03:18:22.862Z,55.09
2017-08-10T03:19:32.784Z,54.9
2017-08-10T03:20:42.111Z,54.9
2017-08-10T03:21:52.324Z,54.71
2017-08-10T03:23:01.932Z,54.42
2017-08-10T03:24:11.534Z,54.42
2017-08-10T03:25:21.463Z,54.8
2017-08-10T03:26:31.372Z,54.71
2017-08-10T03:27:41.582Z,54.9
2017-08-10T03:28:51.494Z,54.44
2017-08-10T03:30:01.431Z,54.54
2017-08-10T03:31:11.046Z,54.42
2017-08-10T03:32:21.259Z,54.25
2017-08-10T03:33:31.483Z,54.16
2017-08-10T03:34:41.719Z,54.35
2017-08-10T03:35:51.638Z,54.64
2017-08-10T03:37:01.558Z,54.44
2017-08-10T03:38:11.771Z,54.35
2017-08-10T03:39:21.984Z,54.35
2017-08-10T03:40:32.205Z,54.35
2017-08-10T03:41:42.451Z,54.35
2017-08-10T03:42:52.388Z,54.16
2017-08-10T03:44:02.613Z,54.35
2017-08-10T03:45:12.662Z,54.25
2017-08-10T03:46:22.275Z,54.44
2017-08-10T03:47:32.871Z,54.54
2017-08-10T03:48:42.168Z,54.35
2017-08-10T03:49:52.101Z,54.64
2017-08-10T03:51:02.018Z,54.83
2017-08-10T03:52:11.626Z,54.83
2017-08-10T03:53:21.547Z,54.64
2017-08-10T03:54:31.459Z,54.83
2017-08-10T03:55:41.091Z,54.54
2017-08-10T03:56:51.200Z,54.64
2017-08-10T03:58:01.129Z,54.54
2017-08-10T03:59:11.038Z,54.74
2017-08-10T04:00:20.958Z,54.74
2017-08-10T04:01:30.568Z,54.64
2017-08-10T04:02:40.786Z,54.64
2017-08-10T04:03:51.026Z,54.93
2017-08-10T04:05:00.641Z,54.64
2017-08-10T04:06:10.963Z,54.93
2017-08-10T04:07:20.895Z,54.83
2017-08-10T04:08:31.280Z,54.93
2017-08-10T04:09:41.193Z,54.83
2017-08-10T04:10:50.812Z,54.83
2017-08-10T04:12:00.725Z,54.93
2017-08-10T04:13:10.966Z,54.93
2017-08-10T04:14:20.977Z,54.93
2017-08-10T04:15:30.891Z,55.02
2017-08-10T04:16:41.110Z,54.93
2017-08-10T04:17:51.322Z,54.93
2017-08-10T04:19:00.625Z,54.93
2017-08-10T04:20:10.839Z,55.02
2017-08-10T04:21:20.752Z,54.93
2017-08-10T04:22:30.660Z,55.02
2017-08-10T04:23:40.268Z,54.83
2017-08-10T04:24:50.502Z,54.74
2017-08-10T04:26:00.734Z,55.02
2017-08-10T04:27:10.673Z,55.02
2017-08-10T04:28:20.282Z,55.22
2017-08-10T04:29:30.501Z,55.22
2017-08-10T04:30:40.416Z,55.51
2017-08-10T04:31:50.777Z,55.31
2017-08-10T04:33:00.999Z,55.31
2017-08-10T04:34:11.217Z,55.31
2017-08-10T04:35:20.853Z,54.93
2017-08-10T04:36:30.447Z,55.12
2017-08-10T04:37:40.823Z,55.12
2017-08-10T04:38:50.737Z,55.51
2017-08-10T04:40:00.956Z,55.41
2017-08-10T04:41:10.570Z,55.51
2017-08-10T04:42:20.177Z,55.79
2017-08-10T04:43:30.557Z,55.7
2017-08-10T04:44:40.175Z,55.6
2017-08-10T04:45:49.789Z,55.7
2017-08-10T04:46:59.400Z,55.51
2017-08-10T04:48:09.022Z,55.51
2017-08-10T04:49:19.081Z,56.09
2017-08-10T04:50:29.006Z,55.79
2017-08-10T04:51:38.946Z,55.89
2017-08-10T04:52:48.858Z,55.89
2017-08-10T04:53:58.774Z,56.09
2017-08-10T04:55:08.501Z,56.09
2017-08-10T04:56:18.112Z,56.09
2017-08-10T04:57:27.725Z,55.79
2017-08-10T04:58:37.942Z,55.7
2017-08-10T04:59:47.845Z,55.7
2017-08-10T05:00:58.228Z,55.02
2017-08-10T05:02:08.156Z,55.54
2017-08-10T05:03:18.064Z,55.05
2017-08-10T05:04:28.301Z,54.86
2017-08-10T05:05:38.538Z,54.66
2017-08-10T05:06:48.580Z,54.57
2017-08-10T05:07:58.187Z,54.38
2017-08-10T05:09:07.501Z,54.18
2017-08-10T05:10:17.111Z,54.5
2017-08-10T05:11:26.717Z,54.31
2017-08-10T05:12:36.399Z,53.92
2017-08-10T05:13:46.321Z,54.21
2017-08-10T05:14:56.244Z,54.11
2017-08-10T05:16:06.161Z,54.05
2017-08-10T05:17:15.760Z,53.85
2017-08-10T05:18:25.892Z,53.75
2017-08-10T05:19:36.106Z,54.14
2017-08-10T05:20:46.336Z,53.37
2017-08-10T05:21:56.275Z,53.95
2017-08-10T05:23:05.902Z,53.27
2017-08-10T05:24:16.521Z,53.08
2017-08-10T05:25:26.447Z,53.37
2017-08-10T05:26:36.370Z,53.17
2017-08-10T05:27:45.993Z,53.27
2017-08-10T05:28:55.909Z,53.3
2017-08-10T05:30:06.133Z,53.3
2017-08-10T05:31:16.057Z,53.39
2017-08-10T05:32:25.975Z,53.11
2017-08-10T05:33:35.572Z,53.11
2017-08-10T05:34:45.491Z,53.01
2017-08-10T05:35:55.410Z,53.01
2017-08-10T05:37:05.048Z,53.39
2017-08-10T05:38:14.969Z,53.2
2017-08-10T05:39:25.201Z,53.2
2017-08-10T05:40:35.425Z,53.2
2017-08-10T05:41:45.488Z,53.01
2017-08-10T05:42:54.862Z,53.39
2017-08-10T05:44:04.780Z,53.33
2017-08-10T05:45:14.081Z,53.01
2017-08-10T05:46:24.108Z,53.03
2017-08-10T05:47:34.412Z,53.03
2017-08-10T05:48:44.026Z,53.03
2017-08-10T05:49:53.945Z,52.94
2017-08-10T05:51:03.860Z,52.94
2017-08-10T05:52:13.471Z,53.03
2017-08-10T05:53:23.388Z,53.03
2017-08-10T05:54:33.620Z,52.55
2017-08-10T05:55:43.537Z,53.03
2017-08-10T05:56:53.134Z,52.94
2017-08-10T05:58:03.357Z,52.94
2017-08-10T05:59:13.265Z,52.45
2017-08-10T06:00:22.868Z,53.03
2017-08-10T06:01:33.088Z,53.03
2017-08-10T06:02:42.996Z,53.03
2017-08-10T06:03:52.914Z,52.94
2017-08-10T06:05:03.124Z,53.03
2017-08-10T06:06:12.731Z,53.52
2017-08-10T06:07:22.652Z,53.13
2017-08-10T06:08:32.572Z,52.94
2017-08-10T06:09:42.493Z,52.65
2017-08-10T06:10:52.473Z,53.03
2017-08-10T06:12:02.398Z,52.36
2017-08-10T06:13:12.024Z,53.03
2017-08-10T06:14:21.641Z,52.65
2017-08-10T06:15:31.552Z,53.52
2017-08-10T06:16:41.527Z,53.06
2017-08-10T06:17:51.754Z,52.94
2017-08-10T06:19:01.673Z,52.36
2017-08-10T06:20:10.983Z,53.03
2017-08-10T06:21:20.600Z,53.06
2017-08-10T06:22:30.826Z,53.03
2017-08-10T06:23:40.767Z,53.13
2017-08-10T06:24:50.703Z,52.39
2017-08-10T06:26:00.003Z,52.67
2017-08-10T06:27:09.635Z,52.77
2017-08-10T06:28:19.661Z,52.36
2017-08-10T06:29:29.955Z,52.55
2017-08-10T06:30:39.864Z,52.97
2017-08-10T06:31:48.870Z,52.87
2017-08-10T06:32:59.101Z,53.06
2017-08-10T06:34:08.702Z,52.97
2017-08-10T06:35:18.955Z,53.16
2017-08-10T06:36:28.875Z,53.06
2017-08-10T06:37:38.828Z,53.06
2017-08-10T06:38:48.461Z,53.06
2017-08-10T06:39:58.750Z,53.55
2017-08-10T06:41:08.992Z,53.55
2017-08-10T06:42:18.905Z,52.67
2017-08-10T06:43:29.136Z,52.97
2017-08-10T06:44:39.060Z,52.39
2017-08-10T06:45:49.145Z,53.06
2017-08-10T06:46:59.372Z,53.06
2017-08-10T06:48:09.620Z,53.55
2017-08-10T06:49:19.549Z,53.06
2017-08-10T06:50:29.532Z,53.55
2017-08-10T06:51:39.252Z,52.67
2017-08-10T06:52:48.866Z,53.45
2017-08-10T06:53:59.099Z,53.45
2017-08-10T06:55:09.022Z,53.45
2017-08-10T06:56:18.942Z,52.97
2017-08-10T06:57:29.080Z,52.67
2017-08-10T06:58:39.015Z,52.67
2017-08-10T06:59:48.934Z,52.87
2017-08-10T07:00:58.872Z,52.97
2017-08-10T07:02:08.476Z,53.35
2017-08-10T07:03:18.892Z,53.25
2017-08-10T07:04:28.834Z,53.55
2017-08-10T07:05:38.755Z,53.16
2017-08-10T07:06:48.993Z,53.25
2017-08-10T07:07:59.229Z,53.35
2017-08-10T07:09:09.172Z,53.35
2017-08-10T07:10:19.421Z,53.25
2017-08-10T07:11:29.355Z,53.35
2017-08-10T07:12:39.607Z,52.87
2017-08-10T07:13:49.522Z,53.25
2017-08-10T07:14:59.566Z,53.35
2017-08-10T07:16:09.835Z,53.06
2017-08-10T07:17:19.484Z,53.16
2017-08-10T07:18:29.713Z,53.35
2017-08-10T07:19:39.947Z,53.16
2017-08-10T07:20:49.566Z,53.25
2017-08-10T07:21:59.504Z,53.06
2017-08-10T07:23:09.438Z,53.28
2017-08-10T07:24:19.683Z,53.16
2017-08-10T07:25:29.316Z,53.25
2017-08-10T07:26:39.242Z,53.38
2017-08-10T07:27:49.172Z,53.25
2017-08-10T07:28:59.135Z,53.19
2017-08-10T07:30:08.779Z,53.28
2017-08-10T07:31:18.410Z,53.38
2017-08-10T07:32:28.343Z,53.28
2017-08-10T07:33:38.560Z,53.09
2017-08-10T07:34:48.820Z,53.28
2017-08-10T07:35:59.061Z,53.38
2017-08-10T07:37:08.999Z,53.19
2017-08-10T07:38:19.339Z,53.19
2017-08-10T07:39:29.602Z,53.19
2017-08-10T07:40:39.261Z,53.28
2017-08-10T07:41:49.498Z,53.28
2017-08-10T07:42:59.130Z,53.28
2017-08-10T07:44:08.898Z,53.19
2017-08-10T07:45:18.221Z,53.28
2017-08-10T07:46:28.147Z,53.38
2017-08-10T07:47:38.079Z,53.19
2017-08-10T07:48:48.340Z,53.28
2017-08-10T07:49:58.620Z,53.38
2017-08-10T07:51:07.625Z,53.38
2017-08-10T07:52:17.261Z,53.19
2017-08-10T07:53:27.194Z,53.19
2017-08-10T07:54:36.813Z,52.99
2017-08-10T07:55:47.053Z,53.28
2017-08-10T07:56:57.304Z,53.47
2017-08-10T07:58:07.243Z,53.09
2017-08-10T07:59:17.191Z,53.09
2017-08-10T08:00:27.141Z,53.47
2017-08-10T08:01:36.757Z,53.28
2017-08-10T08:02:46.978Z,53.28
2017-08-10T08:03:56.591Z,53.09
2017-08-10T08:05:06.840Z,53.19
2017-08-10T08:06:16.470Z,53.38
2017-08-10T08:07:26.102Z,53.28
2017-08-10T08:08:35.719Z,53.28
2017-08-10T08:09:45.655Z,53.28
2017-08-10T08:10:55.280Z,53.19
2017-08-10T08:12:05.226Z,53.38
2017-08-10T08:13:15.150Z,52.99
2017-08-10T08:14:25.082Z,53.19
2017-08-10T08:15:35.063Z,53.19
2017-08-10T08:16:45.019Z,53.28
2017-08-10T08:17:54.996Z,53.38
2017-08-10T08:19:05.077Z,52.99
2017-08-10T08:20:15.033Z,52.89
2017-08-10T08:21:24.960Z,53.38
2017-08-10T08:22:34.590Z,53.38
2017-08-10T08:23:44.824Z,53.09
2017-08-10T08:24:54.907Z,53.09
2017-08-10T08:26:04.858Z,52.89
2017-08-10T08:27:14.799Z,53.38
2017-08-10T08:28:24.731Z,52.8
2017-08-10T08:29:34.048Z,53.47
2017-08-10T08:30:44.604Z,52.8
2017-08-10T08:31:53.953Z,53.47
2017-08-10T08:33:03.566Z,53.47
2017-08-10T08:34:13.817Z,53.47
2017-08-10T08:35:23.737Z,53.57
2017-08-10T08:36:33.963Z,52.99
2017-08-10T08:37:43.900Z,52.41
2017-08-10T08:38:53.838Z,53.09
2017-08-10T08:40:04.078Z,53.09
2017-08-10T08:41:13.704Z,52.99
2017-08-10T08:42:24.103Z,52.41
2017-08-10T08:43:34.022Z,53.09
2017-08-10T08:44:44.272Z,52.99
2017-08-10T08:45:54.219Z,53.11
2017-08-10T08:47:04.477Z,52.44
2017-08-10T08:48:14.699Z,52.92
2017-08-10T08:49:24.945Z,53.09
2017-08-10T08:50:34.294Z,52.44
2017-08-10T08:51:44.213Z,52.82
2017-08-10T08:52:54.149Z,53.11
2017-08-10T08:54:04.247Z,52.51
2017-08-10T08:55:13.895Z,52.8
2017-08-10T08:56:23.822Z,53.09
2017-08-10T08:57:34.061Z,53.02
2017-08-10T08:58:43.985Z,52.73
2017-08-10T08:59:54.236Z,52.7
2017-08-10T09:01:04.175Z,53.09
2017-08-10T09:02:13.495Z,53.69
2017-08-10T09:03:23.440Z,53.57
2017-08-10T09:04:33.378Z,53.5
2017-08-10T09:05:43.089Z,53.09
2017-08-10T09:06:53.312Z,53.5
2017-08-10T09:08:03.562Z,53.5
2017-08-10T09:09:13.182Z,53.5
2017-08-10T09:10:22.497Z,52.8
2017-08-10T09:11:32.501Z,52.73
2017-08-10T09:12:42.736Z,53.5
2017-08-10T09:13:52.964Z,52.89
2017-08-10T09:15:03.213Z,53.5
2017-08-10T09:16:13.475Z,52.73
2017-08-10T09:17:23.239Z,53.38
2017-08-10T09:18:33.200Z,53.5
2017-08-10T09:19:43.131Z,53.09
2017-08-10T09:20:53.373Z,52.7
2017-08-10T09:22:03.008Z,53.11
2017-08-10T09:23:13.272Z,52.89
2017-08-10T09:24:23.207Z,52.7
2017-08-10T09:25:33.156Z,53.38
2017-08-10T09:26:42.785Z,52.92
2017-08-10T09:27:52.407Z,53.5
2017-08-10T09:29:01.409Z,53.5
2017-08-10T09:30:11.027Z,53.21
2017-08-10T09:31:20.645Z,52.8
2017-08-10T09:32:30.898Z,52.8
2017-08-10T09:33:41.143Z,53.5
2017-08-10T09:34:50.750Z,53.11
2017-08-10T09:36:00.977Z,53.38
2017-08-10T09:37:11.574Z,53.41
2017-08-10T09:38:21.514Z,53.59
2017-08-10T09:39:31.145Z,53.28
2017-08-10T09:40:41.061Z,53.47
2017-08-10T09:41:50.990Z,53.5
2017-08-10T09:43:00.925Z,53.09
2017-08-10T09:44:11.148Z,53.47
2017-08-10T09:45:20.465Z,52.73
2017-08-10T09:46:30.232Z,53.19
2017-08-10T09:47:40.491Z,53.11
2017-08-10T09:48:50.443Z,53.02
2017-08-10T09:50:00.669Z,53.5
2017-08-10T09:51:09.984Z,53.57
2017-08-10T09:52:19.766Z,53.11
2017-08-10T09:53:30.027Z,53.11
2017-08-10T09:54:39.658Z,53.59
2017-08-10T09:55:49.278Z,53.11
2017-08-10T09:56:58.895Z,52.44
2017-08-10T09:58:08.877Z,53.02
2017-08-10T09:59:18.796Z,53.11
2017-08-10T10:00:28.419Z,52.53
2017-08-10T10:01:38.668Z,52.44
2017-08-10T10:02:48.919Z,52.63
2017-08-10T10:03:58.670Z,52.63
2017-08-10T10:05:08.625Z,52.92
2017-08-10T10:06:18.252Z,52.82
2017-08-10T10:07:28.189Z,52.53
2017-08-10T10:08:37.804Z,53.02
2017-08-10T10:09:47.853Z,52.53
2017-08-10T10:10:57.468Z,52.92
2017-08-10T10:12:07.699Z,52.82
2017-08-10T10:13:17.347Z,52.82
2017-08-10T10:14:27.314Z,52.53
2017-08-10T10:15:37.338Z,53.11
2017-08-10T10:16:47.255Z,52.63
2017-08-10T10:17:57.496Z,52.53
2017-08-10T10:19:07.427Z,52.63
2017-08-10T10:20:17.364Z,52.73
2017-08-10T10:21:27.341Z,52.53
2017-08-10T10:22:36.964Z,52.73
2017-08-10T10:23:46.616Z,52.82
2017-08-10T10:24:56.868Z,52.73
2017-08-10T10:26:06.790Z,52.53
2017-08-10T10:27:16.893Z,52.63
2017-08-10T10:28:26.851Z,52.63
2017-08-10T10:29:37.112Z,52.63
2017-08-10T10:30:47.030Z,52.73
2017-08-10T10:31:56.651Z,52.82
2017-08-10T10:33:06.280Z,52.73
2017-08-10T10:34:16.515Z,52.63
2017-08-10T10:35:26.437Z,52.73
2017-08-10T10:36:36.675Z,52.63
2017-08-10T10:37:46.290Z,52.73
2017-08-10T10:38:56.679Z,52.63
2017-08-10T10:40:06.970Z,52.73
2017-08-10T10:41:17.207Z,52.73
2017-08-10T10:42:27.455Z,52.73
2017-08-10T10:43:37.391Z,52.73
2017-08-10T10:44:46.815Z,52.63
2017-08-10T10:45:56.436Z,52.73
2017-08-10T10:47:06.356Z,52.73
2017-08-10T10:48:16.287Z,52.73
2017-08-10T10:49:25.910Z,52.63
2017-08-10T10:50:35.605Z,52.63
2017-08-10T10:51:45.532Z,52.63
2017-08-10T10:52:55.461Z,52.73
2017-08-10T10:54:04.784Z,52.73
2017-08-10T10:55:14.088Z,52.73
2017-08-10T10:56:23.399Z,53.02
2017-08-10T10:57:33.641Z,52.92
2017-08-10T10:58:43.259Z,53.11
2017-08-10T10:59:53.199Z,53.11
2017-08-10T11:01:03.432Z,53.11
2017-08-10T11:02:12.744Z,53.11
2017-08-10T11:03:22.662Z,52.53
2017-08-10T11:04:32.586Z,53.21
2017-08-10T11:05:42.523Z,53.02
2017-08-10T11:06:52.460Z,53.11
2017-08-10T11:08:02.695Z,53.11
2017-08-10T11:09:12.608Z,53.11
2017-08-10T11:10:22.528Z,53.11
2017-08-10T11:11:32.455Z,53.11
2017-08-10T11:12:42.697Z,53.02
2017-08-10T11:13:52.801Z,53.21
2017-08-10T11:15:02.417Z,53.11
2017-08-10T11:16:12.342Z,52.44
2017-08-10T11:17:22.284Z,53.02
2017-08-10T11:18:31.582Z,53.02
2017-08-10T11:19:41.206Z,53.11
2017-08-10T11:20:51.138Z,53.11
2017-08-10T11:22:00.770Z,53.02
2017-08-10T11:23:10.070Z,52.63
2017-08-10T11:24:20.017Z,53.11
2017-08-10T11:25:30.047Z,53.02
2017-08-10T11:26:40.284Z,53.02
2017-08-10T11:27:49.921Z,53.11
2017-08-10T11:28:59.859Z,53.11
2017-08-10T11:30:10.087Z,53.11
2017-08-10T11:31:19.529Z,53.11
2017-08-10T11:32:29.473Z,53.11
2017-08-10T11:33:39.701Z,53.21
2017-08-10T11:34:49.630Z,53.59
2017-08-10T11:35:59.561Z,53.21
2017-08-10T11:37:09.509Z,53.21
2017-08-10T11:38:20.119Z,52.53
2017-08-10T11:39:29.431Z,53.59
2017-08-10T11:40:39.371Z,53.59
2017-08-10T11:41:48.993Z,53.59
2017-08-10T11:42:59.272Z,52.53
2017-08-10T11:44:09.212Z,53.59
2017-08-10T11:45:19.457Z,53.11
2017-08-10T11:46:28.768Z,53.11
2017-08-10T11:47:38.070Z,53.59
2017-08-10T11:48:47.728Z,53.11
2017-08-10T11:49:57.636Z,53.11
2017-08-10T11:51:07.560Z,53.02
2017-08-10T11:52:17.495Z,53.02
2017-08-10T11:53:27.472Z,53.11
2017-08-10T11:54:37.712Z,52.82
2017-08-10T11:55:47.635Z,52.53
2017-08-10T11:56:57.899Z,52.73
2017-08-10T11:58:07.511Z,52.63
2017-08-10T11:59:17.147Z,52.63
2017-08-10T12:00:27.361Z,52.73
2017-08-10T12:01:37.594Z,52.73
2017-08-10T12:02:47.226Z,52.82
2017-08-10T12:03:56.866Z,52.73
2017-08-10T12:05:06.495Z,52.63
2017-08-10T12:06:16.741Z,52.92
2017-08-10T12:07:26.978Z,52.82
2017-08-10T12:08:36.897Z,52.73
2017-08-10T12:09:46.835Z,52.73
2017-08-10T12:10:56.765Z,53.11
2017-08-10T12:12:07.085Z,52.73
2017-08-10T12:13:17.330Z,52.92
2017-08-10T12:14:27.264Z,53.11
2017-08-10T12:15:37.194Z,53.21
2017-08-10T12:16:47.117Z,52.73
2017-08-10T12:17:57.354Z,52.34
2017-08-10T12:19:07.293Z,53.02
2017-08-10T12:20:17.542Z,52.73
2017-08-10T12:21:27.772Z,52.34
2017-08-10T12:22:37.694Z,52.73
2017-08-10T12:23:47.611Z,52.53
2017-08-10T12:24:57.531Z,53.02
2017-08-10T12:26:07.761Z,53.02
2017-08-10T12:27:17.694Z,53.02
2017-08-10T12:28:27.006Z,52.73
2017-08-10T12:29:36.606Z,52.63
2017-08-10T12:30:46.243Z,52.63
2017-08-10T12:31:56.160Z,53.11
2017-08-10T12:33:06.099Z,53.21
2017-08-10T12:34:16.077Z,52.82
2017-08-10T12:35:26.350Z,53.11
2017-08-10T12:36:36.283Z,53.02
2017-08-10T12:37:45.907Z,52.82
2017-08-10T12:38:55.533Z,53.02
2017-08-10T12:40:05.761Z,52.63
2017-08-10T12:41:15.985Z,52.63
2017-08-10T12:42:26.213Z,52.63
2017-08-10T12:43:36.142Z,52.63
2017-08-10T12:44:46.383Z,52.44
2017-08-10T12:45:56.317Z,52.53
2017-08-10T12:47:06.091Z,52.63
2017-08-10T12:48:16.032Z,52.63
2017-08-10T12:49:25.341Z,52.63
2017-08-10T12:50:35.597Z,52.63
2017-08-10T12:51:45.245Z,52.53
2017-08-10T12:52:55.166Z,52.63
2017-08-10T12:54:05.098Z,52.53
2017-08-10T12:55:15.354Z,52.63
2017-08-10T12:56:25.042Z,52.73
2017-08-10T12:57:35.287Z,52.63
2017-08-10T12:58:45.577Z,52.53
2017-08-10T12:59:55.512Z,52.63
2017-08-10T13:01:04.824Z,52.53
2017-08-10T13:02:15.064Z,52.53
2017-08-10T13:03:25.307Z,52.73
2017-08-10T13:04:34.927Z,52.63
2017-08-10T13:05:43.926Z,52.63
2017-08-10T13:06:53.251Z,52.53
2017-08-10T13:08:02.929Z,52.73
2017-08-10T13:09:12.880Z,52.73
2017-08-10T13:10:23.139Z,52.53
2017-08-10T13:11:32.803Z,52.73
2017-08-10T13:12:42.726Z,52.63
2017-08-10T13:13:52.049Z,53.02
2017-08-10T13:15:01.986Z,52.63
2017-08-10T13:16:11.705Z,52.53
2017-08-10T13:17:21.352Z,53.02
2017-08-10T13:18:31.298Z,53.11
2017-08-10T13:19:40.935Z,53.21
2017-08-10T13:20:50.559Z,53.02
2017-08-10T13:22:00.029Z,52.82
2017-08-10T13:23:09.379Z,52.73
2017-08-10T13:24:19.037Z,52.82
2017-08-10T13:25:29.271Z,52.73
2017-08-10T13:26:39.223Z,53.02
2017-08-10T13:27:49.984Z,52.82
2017-08-10T13:28:59.950Z,52.82
2017-08-10T13:30:10.188Z,52.63
2017-08-10T13:31:20.108Z,53.02
2017-08-10T13:32:29.722Z,52.82
2017-08-10T13:33:39.444Z,52.73
2017-08-10T13:34:49.376Z,52.73
2017-08-10T13:35:58.683Z,52.73
2017-08-10T13:37:08.617Z,52.73
2017-08-10T13:38:18.844Z,53.02
2017-08-10T13:39:28.915Z,52.73
2017-08-10T13:40:38.566Z,52.53
2017-08-10T13:41:48.173Z,53.02
2017-08-10T13:42:58.411Z,52.53
2017-08-10T13:44:08.333Z,52.63
2017-08-10T13:45:18.833Z,53.02
2017-08-10T13:46:28.803Z,53.02
2017-08-10T13:47:38.726Z,53.02
2017-08-10T13:48:48.683Z,52.82
2017-08-10T13:49:58.928Z,52.82
2017-08-10T13:51:08.898Z,52.73
2017-08-10T13:52:18.527Z,52.82
2017-08-10T13:53:28.189Z,52.82
2017-08-10T13:54:38.477Z,53.02
2017-08-10T13:55:48.424Z,52.92
2017-08-10T13:56:58.511Z,52.63
2017-08-10T13:58:07.815Z,52.82
2017-08-10T13:59:16.860Z,53.11
2017-08-10T14:00:27.110Z,52.82
2017-08-10T14:01:37.041Z,52.82
2017-08-10T14:02:46.666Z,52.63
2017-08-10T14:03:56.288Z,52.73
2017-08-10T14:05:05.918Z,52.73
2017-08-10T14:06:15.547Z,52.92
2017-08-10T14:07:24.887Z,52.82
2017-08-10T14:08:34.918Z,52.63
2017-08-10T14:09:45.164Z,52.73
2017-08-10T14:10:55.408Z,52.63
2017-08-10T14:12:05.334Z,52.63
2017-08-10T14:13:14.964Z,52.73
2017-08-10T14:14:25.497Z,52.63
2017-08-10T14:15:35.426Z,52.92
2017-08-10T14:16:45.342Z,52.63
2017-08-10T14:17:55.574Z,52.63
2017-08-10T14:19:05.205Z,53.02
2017-08-10T14:20:14.827Z,52.82
2017-08-10T14:21:24.447Z,52.73
2017-08-10T14:22:34.396Z,52.73
2017-08-10T14:23:43.402Z,52.63
2017-08-10T14:24:53.633Z,52.63
2017-08-10T14:26:03.734Z,52.63
2017-08-10T14:27:13.364Z,52.63
2017-08-10T14:28:23.605Z,53.02
2017-08-10T14:29:33.533Z,52.82
2017-08-10T14:30:43.499Z,52.92
2017-08-10T14:31:53.743Z,52.82
2017-08-10T14:33:03.390Z,52.82
2017-08-10T14:34:13.036Z,52.73
2017-08-10T14:35:22.361Z,52.92
2017-08-10T14:36:32.597Z,52.73
2017-08-10T14:37:42.006Z,52.82
2017-08-10T14:38:51.927Z,52.82
2017-08-10T14:40:01.543Z,52.82
2017-08-10T14:41:11.472Z,52.92
2017-08-10T14:42:21.723Z,53.02
2017-08-10T14:43:31.252Z,52.92
2017-08-10T14:44:41.176Z,52.63
2017-08-10T14:45:51.419Z,52.63
2017-08-10T14:47:01.670Z,52.73
2017-08-10T14:48:11.613Z,52.63
2017-08-10T14:49:21.237Z,52.82
2017-08-10T14:50:30.872Z,52.82
2017-08-10T14:51:40.507Z,52.82
2017-08-10T14:52:49.519Z,52.73
2017-08-10T14:53:59.772Z,52.73
2017-08-10T14:55:10.305Z,52.73
2017-08-10T14:56:19.927Z,52.63
2017-08-10T14:57:30.161Z,52.53
2017-08-10T14:58:39.781Z,52.63
2017-08-10T14:59:49.721Z,52.63
2017-08-10T15:00:59.713Z,52.63
2017-08-10T15:02:09.962Z,52.63
2017-08-10T15:03:19.605Z,53.11